Time;durP1;ratioP1;P1;durP2;ratioP2;P2;SDS_P1;SDS_P2;PMS_P1;PMS_P2;Temp;Humidity;BMP_temperature;BMP_pressure;BME280_temperature;BME280_humidity;BME280_pressure;Samples;Min_cycle;Max_cycle;Signal;HPM_P1;HPM_P2
2022/12/17 14:51:41;;;;;;;;;;;;;;;17.69;37.98;102278.72;5148748;27;19944;-55
2022/12/17 14:54:18;;;;;;;;;;;;;;;17.69;38.03;102281.50;5146026;27;20016;-55
2022/12/17 14:56:44;;;;;;;;;;;;;;;17.69;38.02;102281.50;5113170;28;19923;-55
2022/12/17 14:59:29;;;;;;;;;;;;;;;17.70;37.97;102281.28;5136672;27;19947;-55
2022/12/17 15:01:54;;;;;;;;;;;;;;;17.70;37.97;102281.28;5150882;27;19969;-55
2022/12/17 15:04:21;;;;;;;;;;;;;;;17.68;37.87;102272.38;5150836;27;19923;-54
2022/12/17 15:06:47;;;;;;;;;;;;;;;17.69;38.28;102276.81;5150318;27;19923;-55
2022/12/17 15:09:13;;;;;;;;;;;;;;;17.69;37.94;102276.81;5150400;27;19968;-55
2022/12/17 15:11:38;;;;;;;;;;;;;;;17.69;37.90;102279.56;5142576;27;19938;-55
2022/12/17 15:14:04;;;;;;;;;;;;;;;17.70;37.91;102284.03;5129921;28;19928;-55
2022/12/17 15:16:29;;;;;;;;;;;;;;;17.69;37.93;102271.31;5130045;28;20372;-55
2022/12/17 15:18:55;;;;;;;;;;;;;;;17.68;38.03;102280.66;5114672;27;19923;-55
2022/12/17 15:21:21;;;;;;;;;;;;;;;17.69;37.99;102276.81;5151992;27;19923;-55
2022/12/17 15:23:46;;;;;;;;;;;;;;;17.70;37.90;102274.91;5153956;27;19927;-55
2022/12/17 15:26:13;;;;;;;;;;;;;;;17.68;37.87;102275.16;5135703;27;19924;-55
2022/12/17 15:28:40;;;;;;;;;;;;;;;17.68;37.92;102277.06;5153892;27;19974;-55
2022/12/17 15:31:07;;;;;;;;;;;;;;;17.69;37.82;102287.84;5135554;27;19975;-55
2022/12/17 15:33:33;;;;;;;;;;;;;;;17.68;37.91;102280.66;5153383;27;20034;-55
2022/12/17 15:35:59;;;;;;;;;;;;;;;17.69;37.98;102278.72;5154320;27;19927;-54
2022/12/17 15:38:24;;;;;;;;;;;;;;;17.68;37.78;102280.66;5153377;27;19968;-55
2022/12/17 15:40:50;;;;;;;;;;;;;;;17.69;37.86;102285.09;5153327;27;19930;-55
2022/12/17 15:43:15;;;;;;;;;;;;;;;17.68;38.04;102277.91;5154073;27;19930;-55
2022/12/17 15:45:42;;;;;;;;;;;;;;;17.69;37.90;102289.75;5153677;27;19927;-55
2022/12/17 15:48:08;;;;;;;;;;;;;;;17.69;37.89;102298.03;5131685;28;19923;-55
2022/12/17 15:50:34;;;;;;;;;;;;;;;17.69;37.83;102292.50;5114866;28;19970;-55
2022/12/17 15:52:59;;;;;;;;;;;;;;;17.68;37.91;102294.44;5133699;27;19927;-55
2022/12/17 15:55:25;;;;;;;;;;;;;;;17.69;37.96;102301.63;5153706;27;19930;-55
2022/12/17 15:57:50;;;;;;;;;;;;;;;17.69;37.84;102306.28;5158495;27;19974;-55
2022/12/17 16:00:17;;;;;;;;;;;;;;;17.69;37.83;102311.78;5144353;27;19931;-55
2022/12/17 16:02:42;;;;;;;;;;;;;;;17.69;37.93;102309.03;5150415;27;19962;-55
2022/12/17 16:05:08;;;;;;;;;;;;;;;17.68;37.85;102299.09;5153604;27;19933;-54
2022/12/17 16:07:35;;;;;;;;;;;;;;;17.68;37.90;102308.22;5153662;27;19924;-55
2022/12/17 16:10:01;;;;;;;;;;;;;;;17.67;37.99;102297.44;5153287;27;20389;-55
2022/12/17 16:12:30;;;;;;;;;;;;;;;17.68;37.84;102310.13;5153193;27;20409;-55
2022/12/17 16:14:56;;;;;;;;;;;;;;;17.69;37.81;102309.03;5152948;27;19923;-55
2022/12/17 16:17:21;;;;;;;;;;;;;;;17.68;37.81;102310.97;5153581;27;19969;-55
2022/12/17 16:19:47;;;;;;;;;;;;;;;17.68;37.77;102308.22;5153271;27;19931;-55
2022/12/17 16:22:13;;;;;;;;;;;;;;;17.68;37.82;102310.97;5153266;27;19923;-55
2022/12/17 16:24:39;;;;;;;;;;;;;;;17.67;38.03;102312.03;5152698;27;19934;-55
2022/12/17 16:27:05;;;;;;;;;;;;;;;17.67;37.76;102312.03;5153314;27;19966;-55
2022/12/17 16:29:30;;;;;;;;;;;;;;;17.67;37.92;102311.22;5152988;27;20018;-55
2022/12/17 16:31:56;;;;;;;;;;;;;;;17.65;37.87;102308.66;5152978;27;19930;-55
2022/12/17 16:34:22;;;;;;;;;;;;;;;17.66;37.85;102318.63;5152585;27;19923;-52
2022/12/17 16:36:47;;;;;;;;;;;;;;;17.67;37.87;102317.56;5153055;27;19923;-55
2022/12/17 16:39:14;;;;;;;;;;;;;;;17.68;37.86;102321.97;5152908;27;19930;-55
2022/12/17 16:41:39;;;;;;;;;;;;;;;17.68;37.90;102323.91;5152946;27;19966;-55
2022/12/17 16:44:05;;;;;;;;;;;;;;;17.68;37.80;102323.91;5152839;27;19930;-55
2022/12/17 16:46:31;;;;;;;;;;;;;;;17.68;37.76;102326.66;5152687;27;19923;-55
2022/12/17 16:48:58;;;;;;;;;;;;;;;17.68;37.78;102323.91;5130774;27;20355;-55
2022/12/17 16:51:25;;;;;;;;;;;;;;;17.67;37.88;102328.56;5138694;27;19927;-55
2022/12/17 16:53:54;;;;;;;;;;;;;;;17.68;37.96;102326.66;5134141;27;20272;-55
2022/12/17 16:56:22;;;;;;;;;;;;;;;17.66;37.88;102321.41;5152942;27;20362;-55
2022/12/17 16:58:47;;;;;;;;;;;;;;;17.66;37.86;102323.28;5159873;27;20327;-55
2022/12/17 17:01:18;;;;;;;;;;;;;;;17.69;37.85;102336.59;5114663;28;20008;-55
2022/12/17 17:03:44;;;;;;;;;;;;;;;17.65;37.78;102336.22;5130456;28;19976;-55
2022/12/17 17:06:09;;;;;;;;;;;;;;;17.67;37.86;102334.09;5131547;28;19987;-55
2022/12/17 17:08:35;;;;;;;;;;;;;;;17.65;37.79;102319.69;5131878;27;19935;-55
2022/12/17 17:11:10;;;;;;;;;;;;;;;17.67;37.71;102327.75;5152513;27;20022;-55
2022/12/17 17:13:35;;;;;;;;;;;;;;;17.67;37.93;102322.22;5133687;27;20363;-55
2022/12/17 17:16:01;;;;;;;;;;;;;;;17.66;37.81;102331.53;5133959;27;19965;-55
2022/12/17 17:18:26;;;;;;;;;;;;;;;17.67;37.88;102328.56;5152092;27;19923;-55
2022/12/17 17:20:52;;;;;;;;;;;;;;;17.65;37.77;102325.19;5152079;27;20382;-55
2022/12/17 17:23:17;;;;;;;;;;;;;;;17.67;37.73;102327.75;5152021;27;19923;-55
2022/12/17 17:25:43;;;;;;;;;;;;;;;17.66;37.80;102329.66;5152262;27;20312;-55
2022/12/17 17:28:23;;;;;;;;;;;;;;;17.67;37.74;102336.00;5152033;27;19933;-53
2022/12/17 17:30:49;;;;;;;;;;;;;;;17.67;37.96;102336.84;5152205;27;19927;-54
2022/12/17 17:33:15;;;;;;;;;;;;;;;17.65;37.81;102338.13;5151742;27;19923;-55
2022/12/17 17:35:40;;;;;;;;;;;;;;;17.67;37.77;102342.34;5152091;27;19949;-55
2022/12/17 17:38:06;;;;;;;;;;;;;;;17.66;37.86;102353.59;5152131;27;19922;-55
2022/12/17 17:40:31;;;;;;;;;;;;;;;17.67;37.79;102349.78;5151939;27;19923;-55
2022/12/17 17:42:57;;;;;;;;;;;;;;;17.66;37.80;102354.47;5151667;27;20259;-55
2022/12/17 17:45:22;;;;;;;;;;;;;;;17.66;37.93;102359.09;5151468;27;19923;-55
2022/12/17 17:47:48;;;;;;;;;;;;;;;17.66;37.80;102356.34;5147240;27;19927;-55
2022/12/17 17:50:13;;;;;;;;;;;;;;;17.66;37.84;102350.84;5145414;27;20507;-55
2022/12/17 17:52:39;;;;;;;;;;;;;;;17.66;37.86;102345.31;5151137;27;19927;-55
2022/12/17 17:55:05;;;;;;;;;;;;;;;17.64;37.79;102337.31;5151547;27;19930;-55
2022/12/17 17:57:30;;;;;;;;;;;;;;;17.65;37.75;102338.97;5153638;27;19923;-55
2022/12/17 17:59:56;;;;;;;;;;;;;;;17.65;37.79;102344.50;5147025;27;20008;-54
2022/12/17 18:02:22;;;;;;;;;;;;;;;17.65;37.77;102340.91;5145682;27;19924;-55
2022/12/17 18:04:47;;;;;;;;;;;;;;;17.66;37.80;102342.56;5151715;27;20274;-55
2022/12/17 18:07:13;;;;;;;;;;;;;;;17.64;37.81;102342.81;5151840;27;19923;-55
2022/12/17 18:09:51;;;;;;;;;;;;;;;17.64;37.77;102345.56;5151542;27;19923;-55
2022/12/17 18:15:02;;;;;;;;;;;;;;;17.65;37.79;102346.41;5135490;27;20005;-55
2022/12/17 18:17:40;;;;;;;;;;;;;;;17.65;37.70;102343.66;5134988;27;20318;-55
2022/12/17 18:20:06;;;;;;;;;;;;;;;17.64;37.67;102348.31;5132748;27;19923;-54
2022/12/17 18:22:31;;;;;;;;;;;;;;;17.65;37.70;102349.16;5151065;27;19974;-54
2022/12/17 18:24:57;;;;;;;;;;;;;;;17.65;37.79;102344.50;5150529;27;19930;-55
2022/12/17 18:27:22;;;;;;;;;;;;;;;17.65;37.80;102346.41;5151482;27;19923;-55
2022/12/17 18:29:48;;;;;;;;;;;;;;;17.65;37.80;102351.91;5150602;27;19923;-55
2022/12/17 18:32:13;;;;;;;;;;;;;;;17.65;37.75;102349.16;5151354;27;20374;-55
2022/12/17 18:34:39;;;;;;;;;;;;;;;17.64;37.77;102347.50;5150917;27;19940;-55
2022/12/17 18:37:05;;;;;;;;;;;;;;;17.64;37.72;102348.31;5151499;27;19923;-55
2022/12/17 18:39:31;;;;;;;;;;;;;;;17.63;37.73;102348.56;5151107;27;19929;-55
2022/12/17 18:44:42;;;;;;;;;;;;;;;17.65;37.72;102358.25;5132832;27;19923;-55
2022/12/17 18:47:08;;;;;;;;;;;;;;;17.64;37.82;102355.75;5129667;28;19946;-54
2022/12/17 18:49:34;;;;;;;;;;;;;;;17.64;37.77;102359.34;5129898;27;19928;-55
2022/12/17 18:51:59;;;;;;;;;;;;;;;17.65;37.78;102354.66;5141482;27;20278;-55
2022/12/17 18:54:26;;;;;;;;;;;;;;;17.63;37.87;102351.31;5150600;27;19924;-55
2022/12/17 18:56:52;;;;;;;;;;;;;;;17.64;37.68;102364.03;5136136;27;19971;-55
2022/12/17 18:59:27;;;;;;;;;;;;;;;17.64;37.77;102356.59;5155745;27;19949;-55
2022/12/17 19:01:55;;;;;;;;;;;;;;;17.65;37.80;102357.44;5126217;27;19975;-55
2022/12/17 19:04:21;;;;;;;;;;;;;;;17.64;37.87;102359.34;5136110;27;20115;-55
2022/12/17 19:06:52;;;;;;;;;;;;;;;17.63;37.82;102368.69;5154741;27;19997;-55
2022/12/17 19:09:18;;;;;;;;;;;;;;;17.65;37.89;102373.97;5154335;27;20010;-55
2022/12/17 19:11:44;;;;;;;;;;;;;;;17.64;37.70;102367.59;5135918;27;19970;-55
2022/12/17 19:14:09;;;;;;;;;;;;;;;17.64;37.81;102378.63;5154189;27;19931;-55
2022/12/17 19:16:35;;;;;;;;;;;;;;;17.64;37.76;102386.91;5154349;27;19953;-54
2022/12/17 19:19:02;;;;;;;;;;;;;;;17.64;37.72;102386.06;5154237;27;19923;-55
2022/12/17 19:21:28;;;;;;;;;;;;;;;17.63;37.79;102376.97;5153871;27;20343;-55
2022/12/17 19:23:54;;;;;;;;;;;;;;;17.63;37.74;102374.19;5153801;27;20434;-55
2022/12/17 19:26:20;;;;;;;;;;;;;;;17.64;37.75;102372.28;5154214;27;20430;-55
2022/12/17 19:28:47;;;;;;;;;;;;;;;17.64;37.61;102375.03;5135292;27;20035;-55
2022/12/17 19:31:12;;;;;;;;;;;;;;;17.63;37.72;102371.44;5135197;27;19966;-55
2022/12/17 19:33:38;;;;;;;;;;;;;;;17.64;37.81;102377.78;5135149;27;20027;-55
2022/12/17 19:36:05;;;;;;;;;;;;;;;17.63;37.78;102381.63;5154346;27;20379;-55
2022/12/17 19:38:31;;;;;;;;;;;;;;;17.63;37.74;102376.13;5135561;27;19957;-55
2022/12/17 19:41:05;;;;;;;;;;;;;;;17.62;37.76;102372.53;5135284;27;19962;-55
2022/12/17 19:43:30;;;;;;;;;;;;;;;17.63;37.72;102376.13;5153965;27;20429;-54
2022/12/17 19:46:12;;;;;;;;;;;;;;;17.62;37.72;102378.03;5148547;27;19931;-55
2022/12/17 19:51:59;;;;;;;;;;;;;;;17.63;37.26;102378.88;5153113;27;20010;-55
2022/12/17 19:54:25;;;;;;;;;;;;;;;17.62;37.78;102378.03;5153204;27;19927;-55
2022/12/17 19:56:51;;;;;;;;;;;;;;;17.63;37.59;102384.38;5153999;27;19975;-55
2022/12/17 19:59:16;;;;;;;;;;;;;;;17.63;37.77;102387.97;5158299;27;20275;-55
2022/12/17 20:01:43;;;;;;;;;;;;;;;17.61;37.64;102387.34;5141623;27;19923;-55
2022/12/17 20:04:12;;;;;;;;;;;;;;;17.63;37.73;102392.66;5134771;27;19930;-55
2022/12/17 20:06:37;;;;;;;;;;;;;;;17.62;37.78;102400.06;5152924;27;19923;-55
2022/12/17 20:09:04;;;;;;;;;;;;;;;17.62;37.76;102397.31;5153366;27;19923;-55
2022/12/17 20:11:32;;;;;;;;;;;;;;;17.62;37.72;102402.00;5134964;27;19966;-55
2022/12/17 20:13:59;;;;;;;;;;;;;;;17.61;37.72;102406.63;5152911;27;19968;-55
2022/12/17 20:16:25;;;;;;;;;;;;;;;17.61;37.65;102397.53;5153488;27;19962;-55
2022/12/17 20:18:50;;;;;;;;;;;;;;;17.62;37.73;102396.50;5153366;27;19931;-55
2022/12/17 20:21:16;;;;;;;;;;;;;;;17.62;37.73;102413.03;5153329;27;19923;-55
2022/12/17 20:23:44;;;;;;;;;;;;;;;17.62;37.72;102402.00;5153081;27;19966;-55
2022/12/17 20:26:10;;;;;;;;;;;;;;;17.61;37.67;102406.63;5153183;27;19959;-54
2022/12/17 20:28:36;;;;;;;;;;;;;;;17.61;37.84;102414.06;5152619;27;19931;-54
2022/12/17 20:31:02;;;;;;;;;;;;;;;17.62;37.67;102416.59;5153195;27;20403;-55
2022/12/17 20:33:28;;;;;;;;;;;;;;;17.61;37.93;102416.81;5153045;27;20367;-55
2022/12/17 20:35:54;;;;;;;;;;;;;;;17.61;37.66;102419.56;5153038;27;19934;-55
2022/12/17 20:38:19;;;;;;;;;;;;;;;17.62;37.69;102419.38;5153040;27;19927;-55
2022/12/17 20:40:45;;;;;;;;;;;;;;;17.61;37.65;102416.81;5133846;27;19930;-55
2022/12/17 20:43:10;;;;;;;;;;;;;;;17.62;37.62;102422.13;5134075;27;19927;-55
2022/12/17 20:45:36;;;;;;;;;;;;;;;17.60;37.74;102415.97;5134248;27;19923;-55
2022/12/17 20:48:02;;;;;;;;;;;;;;;17.61;37.65;102425.09;5134396;27;19923;-55
2022/12/17 20:50:27;;;;;;;;;;;;;;;17.62;37.61;102424.03;5152796;27;19967;-55
2022/12/17 20:52:53;;;;;;;;;;;;;;;17.62;37.72;102427.63;5133860;27;20037;-55
2022/12/17 20:55:18;;;;;;;;;;;;;;;17.62;37.56;102426.78;5137378;27;19980;-55
2022/12/17 20:57:44;;;;;;;;;;;;;;;17.61;37.67;102427.84;5137849;27;19949;-54
2022/12/17 21:00:10;;;;;;;;;;;;;;;17.60;37.58;102427.00;5145769;27;19927;-55
2022/12/17 21:02:36;;;;;;;;;;;;;;;17.62;37.65;102424.03;5148020;27;19927;-55
2022/12/17 21:05:02;;;;;;;;;;;;;;;17.60;37.66;102424.25;5152456;27;20274;-55
2022/12/17 21:07:27;;;;;;;;;;;;;;;17.61;37.70;102419.56;5152661;27;19923;-55
2022/12/17 21:09:53;;;;;;;;;;;;;;;17.61;37.76;102427.84;5152448;27;19923;-55
2022/12/17 21:12:19;;;;;;;;;;;;;;;17.60;37.73;102427.00;5152011;27;19937;-55
2022/12/17 21:14:44;;;;;;;;;;;;;;;17.60;37.71;102432.50;5133496;27;20336;-55
2022/12/17 21:17:10;;;;;;;;;;;;;;;17.61;37.69;102425.09;5152654;27;19931;-55
2022/12/17 21:19:35;;;;;;;;;;;;;;;17.61;37.72;102427.84;5151316;27;19975;-55
2022/12/17 21:22:02;;;;;;;;;;;;;;;17.60;37.65;102434.44;5151988;27;19930;-55
2022/12/17 21:24:27;;;;;;;;;;;;;;;17.60;37.78;102428.91;5151567;27;19923;-55
2022/12/17 21:26:53;;;;;;;;;;;;;;;17.60;37.69;102423.41;5152448;27;19923;-52
2022/12/17 21:29:18;;;;;;;;;;;;;;;17.61;37.61;102422.34;5151771;27;19926;-54
2022/12/17 21:31:45;;;;;;;;;;;;;;;17.59;37.71;102416.22;5152113;27;19934;-55
2022/12/17 21:34:12;;;;;;;;;;;;;;;17.61;37.81;102416.81;5151805;27;20013;-55
2022/12/17 21:36:37;;;;;;;;;;;;;;;17.60;37.66;102412.41;5152354;27;20384;-55
2022/12/17 21:39:03;;;;;;;;;;;;;;;17.60;37.57;102406.88;5133390;27;20363;-55
2022/12/17 21:41:35;;;;;;;;;;;;;;;17.61;37.66;102411.31;5152036;27;20433;-55
2022/12/17 21:44:03;;;;;;;;;;;;;;;17.61;37.73;102412.16;5143735;27;19970;-55
2022/12/17 21:46:28;;;;;;;;;;;;;;;17.60;37.67;102406.88;5153314;27;19964;-55
2022/12/17 21:48:55;;;;;;;;;;;;;;;17.60;37.63;102418.75;5166733;27;20275;-55
2022/12/17 21:51:20;;;;;;;;;;;;;;;17.60;37.53;102417.91;5136699;27;19959;-55
2022/12/17 21:53:46;;;;;;;;;;;;;;;17.61;37.56;102411.31;5151268;27;20014;-55
2022/12/17 21:56:14;;;;;;;;;;;;;;;17.60;37.60;102413.22;5133152;27;19987;-54
2022/12/17 21:58:40;;;;;;;;;;;;;;;17.60;37.75;102406.88;5151309;27;19931;-55
2022/12/17 22:01:13;;;;;;;;;;;;;;;17.59;37.57;102410.72;5133330;27;19923;-55
2022/12/17 22:03:45;;;;;;;;;;;;;;;17.60;37.72;102424.25;5133154;27;19976;-55
2022/12/17 22:06:12;;;;;;;;;;;;;;;17.59;37.71;102422.56;5151832;27;20135;-55
2022/12/17 22:08:37;;;;;;;;;;;;;;;17.60;37.60;102423.41;5133136;27;19966;-55
2022/12/17 22:11:21;;;;;;;;;;;;;;;17.60;37.75;102434.44;5151650;27;19931;-55
2022/12/17 22:14:05;;;;;;;;;;;;;;;17.59;37.74;102441.03;5150936;27;20010;-55
2022/12/17 22:16:37;;;;;;;;;;;;;;;17.59;37.67;102433.59;5135965;27;20003;-55
2022/12/17 22:19:04;;;;;;;;;;;;;;;17.59;37.65;102430.84;5151095;27;20022;-55
2022/12/17 22:21:31;;;;;;;;;;;;;;;17.59;37.61;102435.50;5151684;27;19927;-55
2022/12/17 22:23:57;;;;;;;;;;;;;;;17.59;37.63;102425.34;5132186;27;20009;-55
2022/12/17 22:26:22;;;;;;;;;;;;;;;17.58;37.63;102436.59;5151354;27;19946;-55
2022/12/17 22:28:48;;;;;;;;;;;;;;;17.59;37.65;102436.34;5151062;27;19923;-55
2022/12/17 22:34:02;;;;;;;;;;;;;;;17.58;37.68;102440.19;5121497;27;19923;-55
2022/12/17 22:36:48;;;;;;;;;;;;;;;17.59;37.67;102446.53;5121778;27;20073;-55
2022/12/17 22:39:33;;;;;;;;;;;;;;;17.59;37.59;102455.63;5135451;27;19934;-55
2022/12/17 22:45:24;;;;;;;;;;;;;;;17.59;37.65;102452.88;5117988;28;19984;-55
2022/12/17 22:47:51;;;;;;;;;;;;;;;17.57;37.63;102455.00;5130703;28;20386;-55
2022/12/17 22:50:16;;;;;;;;;;;;;;;17.58;37.54;102455.88;5144812;27;19945;-55
2022/12/17 22:52:42;;;;;;;;;;;;;;;17.56;37.65;102454.19;5150099;27;20531;-56
2022/12/17 22:55:08;;;;;;;;;;;;;;;17.57;37.56;102463.28;5150689;27;19923;-55
2022/12/17 22:57:34;;;;;;;;;;;;;;;17.58;37.58;102456.72;5151040;27;19930;-55
2022/12/17 23:00:08;;;;;;;;;;;;;;;17.56;37.82;102454.19;5150482;27;19931;-56
2022/12/17 23:02:35;;;;;;;;;;;;;;;17.58;37.73;102456.72;5150768;27;19927;-55
2022/12/17 23:05:00;;;;;;;;;;;;;;;17.58;37.66;102459.47;5150930;27;19927;-55
2022/12/17 23:07:26;;;;;;;;;;;;;;;17.58;37.62;102462.22;5151197;27;19923;-55
2022/12/17 23:09:57;;;;;;;;;;;;;;;17.58;37.69;102466.91;5151047;27;19930;-55
2022/12/17 23:12:54;;;;;;;;;;;;;;;17.57;37.67;102460.53;5150773;27;19965;-55
2022/12/17 23:15:08;;;;;;;;;;;;;;;17.57;37.74;102446.75;5120748;27;19923;-55
2022/12/17 23:17:34;;;;;;;;;;;;;;;17.58;37.54;102448.44;5150355;27;19934;-56
2022/12/17 23:20:00;;;;;;;;;;;;;;;17.59;37.81;102446.53;5150635;27;19927;-55
2022/12/17 23:22:26;;;;;;;;;;;;;;;17.56;37.59;102448.66;5150814;27;20397;-55
2022/12/17 23:24:51;;;;;;;;;;;;;;;17.57;37.66;102449.50;5149944;27;19930;-55
2022/12/17 23:27:17;;;;;;;;;;;;;;;17.57;37.65;102452.25;5150579;27;19927;-55
2022/12/17 23:29:42;;;;;;;;;;;;;;;17.56;37.66;102440.41;5149633;27;20419;-56
2022/12/17 23:32:08;;;;;;;;;;;;;;;17.59;37.55;102438.28;5150618;27;19923;-55
2022/12/17 23:34:34;;;;;;;;;;;;;;;17.57;37.54;102449.50;5150287;27;19971;-55
2022/12/17 23:36:59;;;;;;;;;;;;;;;17.58;37.76;102447.63;5150881;27;19927;-55
2022/12/17 23:39:25;;;;;;;;;;;;;;;17.58;37.66;102448.44;5150417;27;19927;-55
2022/12/17 23:41:52;;;;;;;;;;;;;;;17.58;37.57;102444.84;5151508;27;20378;-55
2022/12/17 23:44:18;;;;;;;;;;;;;;;17.56;37.65;102448.66;5153628;27;20020;-55
2022/12/17 23:46:43;;;;;;;;;;;;;;;17.56;37.55;102445.91;5153886;27;20371;-55
2022/12/17 23:49:09;;;;;;;;;;;;;;;17.56;37.65;102443.16;5153944;27;19970;-55
2022/12/17 23:51:34;;;;;;;;;;;;;;;17.55;37.85;102438.72;5153912;27;19923;-55
2022/12/17 23:54:00;;;;;;;;;;;;;;;17.56;37.57;102440.41;5153285;27;19926;-55
2022/12/17 23:56:26;;;;;;;;;;;;;;;17.57;37.50;102435.72;5153794;27;19923;-55
2022/12/17 23:58:54;;;;;;;;;;;;;;;17.56;37.68;102437.66;5134492;27;19974;-55
